createdAt,value
2017-09-23T00:00:10.176Z,12.50
2017-09-23T00:02:37.745Z,12.60
2017-09-23T00:05:05.303Z,12.60
2017-09-23T00:07:32.884Z,12.60
2017-09-23T00:10:00.449Z,12.70
2017-09-23T00:12:28.041Z,12.70
2017-09-23T00:14:56.381Z,12.70
2017-09-23T00:17:24.031Z,12.70
2017-09-23T00:19:51.583Z,12.70
2017-09-23T00:22:19.250Z,12.70
2017-09-23T00:24:46.802Z,12.80
2017-09-23T00:27:14.369Z,12.80
2017-09-23T00:29:41.953Z,12.80
2017-09-23T00:32:09.536Z,12.80
2017-09-23T00:34:37.868Z,12.80
2017-09-23T00:37:05.453Z,12.70
2017-09-23T00:39:33.020Z,12.80
2017-09-23T00:42:00.601Z,12.80
2017-09-23T00:44:28.969Z,12.80
2017-09-23T00:46:57.404Z,12.70
2017-09-23T00:49:24.955Z,12.70
2017-09-23T00:51:52.573Z,12.70
2017-09-23T00:54:20.898Z,12.70
2017-09-23T00:56:48.454Z,12.70
2017-09-23T00:59:16.122Z,12.70
2017-09-23T01:01:43.678Z,12.70
2017-09-23T01:04:11.344Z,12.70
2017-09-23T01:06:38.927Z,12.70
2017-09-23T01:09:06.485Z,12.70
2017-09-23T01:11:34.225Z,12.80
2017-09-23T01:14:01.800Z,12.80
2017-09-23T01:16:29.369Z,12.90
2017-09-23T01:18:56.974Z,12.90
2017-09-23T01:21:24.551Z,12.90
2017-09-23T01:23:52.098Z,12.90
2017-09-23T01:26:19.684Z,13.00
2017-09-23T01:28:47.237Z,13.00
2017-09-23T01:31:14.819Z,13.00
2017-09-23T01:33:42.394Z,13.00
2017-09-23T01:36:09.964Z,13.00
2017-09-23T01:38:37.542Z,13.10
2017-09-23T01:41:05.869Z,13.10
2017-09-23T01:43:33.435Z,13.10
2017-09-23T01:46:00.994Z,13.00
2017-09-23T01:48:28.599Z,13.00
2017-09-23T01:50:56.920Z,13.10
2017-09-23T01:53:24.469Z,13.10
2017-09-23T01:55:52.041Z,13.10
2017-09-23T01:58:19.613Z,13.10
2017-09-23T02:00:47.187Z,13.10
2017-09-23T02:03:14.810Z,13.10
2017-09-23T02:05:42.397Z,13.20
2017-09-23T02:08:09.955Z,13.20
2017-09-23T02:10:37.548Z,13.20
2017-09-23T02:13:05.888Z,13.20
2017-09-23T02:15:33.527Z,13.20
2017-09-23T02:18:01.187Z,13.10
2017-09-23T02:20:28.758Z,13.10
2017-09-23T02:22:56.334Z,13.10
2017-09-23T02:25:23.908Z,13.10
2017-09-23T02:27:51.503Z,13.10
2017-09-23T02:30:19.066Z,13.10
2017-09-23T02:32:46.749Z,13.10
2017-09-23T02:35:14.317Z,13.20
2017-09-23T02:37:41.866Z,13.10
2017-09-23T02:40:09.461Z,13.10
2017-09-23T02:42:37.037Z,13.10
2017-09-23T02:45:05.469Z,13.20
2017-09-23T02:47:33.038Z,13.20
2017-09-23T02:50:00.642Z,13.30
2017-09-23T02:52:29.064Z,13.40
2017-09-23T02:54:56.639Z,13.40
2017-09-23T02:57:24.286Z,13.40
2017-09-23T02:59:51.842Z,13.50
2017-09-23T03:02:19.425Z,13.50
2017-09-23T03:04:46.998Z,13.50
2017-09-23T03:07:14.585Z,13.50
2017-09-23T03:09:43.003Z,13.40
2017-09-23T03:12:10.559Z,13.40
2017-09-23T03:14:38.145Z,13.40
2017-09-23T03:17:05.716Z,13.50
2017-09-23T03:19:33.281Z,13.40
2017-09-23T03:22:00.899Z,13.50
2017-09-23T03:24:28.493Z,13.40
2017-09-23T03:26:56.810Z,13.40
2017-09-23T03:29:24.392Z,13.40
2017-09-23T03:31:51.961Z,13.50
2017-09-23T03:34:19.542Z,13.50
2017-09-23T03:36:47.089Z,13.50
2017-09-23T03:39:14.738Z,13.50
2017-09-23T03:41:42.321Z,13.60
2017-09-23T03:44:09.899Z,13.60
2017-09-23T03:46:38.337Z,13.70
2017-09-23T03:49:05.998Z,13.70
2017-09-23T03:51:33.575Z,13.70
2017-09-23T03:54:01.218Z,13.70
2017-09-23T03:56:28.813Z,13.60
2017-09-23T03:58:57.981Z,13.50
2017-09-23T04:01:25.560Z,13.50
2017-09-23T04:03:53.110Z,13.40
2017-09-23T04:06:20.695Z,13.40
2017-09-23T04:08:48.262Z,13.40
2017-09-23T04:11:15.810Z,13.40
2017-09-23T04:13:44.902Z,13.40
2017-09-23T04:16:12.454Z,13.40
2017-09-23T04:18:40.038Z,13.40
2017-09-23T04:21:08.379Z,13.40
2017-09-23T04:23:35.964Z,13.40
2017-09-23T04:26:03.532Z,13.40
2017-09-23T04:28:31.119Z,13.30
2017-09-23T04:30:58.642Z,13.30
2017-09-23T04:33:26.143Z,13.30
2017-09-23T04:35:53.667Z,13.30
2017-09-23T04:38:21.949Z,13.30
2017-09-23T04:40:50.228Z,13.30
2017-09-23T04:43:18.538Z,13.30
2017-09-23T04:45:46.068Z,13.30
2017-09-23T04:48:14.344Z,13.30
2017-09-23T04:50:42.606Z,13.30
2017-09-23T04:53:10.912Z,13.30
2017-09-23T04:55:38.425Z,13.30
2017-09-23T04:58:05.969Z,13.40
2017-09-23T05:00:33.490Z,13.40
2017-09-23T05:03:01.005Z,13.40
2017-09-23T05:05:28.536Z,13.40
2017-09-23T05:07:56.035Z,13.40
2017-09-23T05:10:24.315Z,13.40
2017-09-23T05:12:52.598Z,13.40
2017-09-23T05:15:20.888Z,13.40
2017-09-23T05:17:48.405Z,13.40
2017-09-23T05:20:15.917Z,13.50
2017-09-23T05:22:43.431Z,13.50
2017-09-23T05:25:10.931Z,13.50
2017-09-23T05:27:38.455Z,13.50
2017-09-23T05:30:06.724Z,13.50
2017-09-23T05:32:34.315Z,13.50
2017-09-23T05:35:01.811Z,13.50
2017-09-23T05:37:29.325Z,13.60
2017-09-23T05:39:57.197Z,13.60
2017-09-23T05:42:24.709Z,13.60
2017-09-23T05:44:52.971Z,13.60
2017-09-23T05:47:20.482Z,13.60
2017-09-23T05:49:47.978Z,13.60
2017-09-23T05:52:16.549Z,13.60
2017-09-23T05:54:44.068Z,13.60
2017-09-23T05:57:12.388Z,13.70
2017-09-23T05:59:39.912Z,13.60
2017-09-23T06:02:08.179Z,13.60
2017-09-23T06:04:36.466Z,13.70
2017-09-23T06:07:04.748Z,13.70
2017-09-23T06:09:32.269Z,13.70
2017-09-23T06:12:01.295Z,13.70
2017-09-23T06:14:29.589Z,13.70
2017-09-23T06:16:57.106Z,13.70
2017-09-23T06:19:24.631Z,13.70
2017-09-23T06:21:52.147Z,13.70
2017-09-23T06:24:19.648Z,13.80
2017-09-23T06:26:47.185Z,13.80
2017-09-23T06:29:14.705Z,13.80
2017-09-23T06:31:43.018Z,13.90
2017-09-23T06:34:10.686Z,13.90
2017-09-23T06:36:38.245Z,14.00
2017-09-23T06:39:05.765Z,14.00
2017-09-23T06:41:34.048Z,14.20
2017-09-23T06:44:02.315Z,14.30
2017-09-23T06:46:30.594Z,14.30
2017-09-23T06:48:58.864Z,14.40
2017-09-23T06:51:27.160Z,14.50
2017-09-23T06:53:54.680Z,14.40
2017-09-23T06:56:22.229Z,14.50
2017-09-23T06:58:49.859Z,14.60
2017-09-23T07:01:17.380Z,14.60
2017-09-23T07:03:45.666Z,14.50
2017-09-23T07:06:13.957Z,14.50
2017-09-23T07:08:41.459Z,14.50
2017-09-23T07:11:09.000Z,14.60
2017-09-23T07:13:36.503Z,14.50
2017-09-23T07:16:05.011Z,14.40
2017-09-23T07:18:32.539Z,14.40
2017-09-23T07:21:00.040Z,14.40
2017-09-23T07:23:27.576Z,14.40
2017-09-23T07:25:55.089Z,14.40
2017-09-23T07:28:22.591Z,14.40
2017-09-23T07:30:50.875Z,14.40
2017-09-23T07:33:18.379Z,14.40
2017-09-23T07:35:46.112Z,14.40
2017-09-23T07:38:13.625Z,14.40
2017-09-23T07:40:41.762Z,14.40
2017-09-23T07:43:09.293Z,14.40
2017-09-23T07:45:36.794Z,14.40
2017-09-23T07:48:04.316Z,14.50
2017-09-23T07:50:31.833Z,14.60
2017-09-23T07:52:59.360Z,14.60
2017-09-23T07:55:26.863Z,14.70
2017-09-23T07:57:55.170Z,15.00
2017-09-23T08:00:22.675Z,15.00
2017-09-23T08:02:50.208Z,15.30
2017-09-23T08:05:17.744Z,15.40
2017-09-23T08:07:45.276Z,15.60
2017-09-23T08:10:13.562Z,16.10
2017-09-23T08:12:41.101Z,16.10
2017-09-23T08:15:09.382Z,16.60
2017-09-23T08:17:37.679Z,16.80
2017-09-23T08:20:05.214Z,16.80
2017-09-23T08:22:33.497Z,17.10
2017-09-23T08:25:01.827Z,17.00
2017-09-23T08:27:29.358Z,16.90
2017-09-23T08:29:56.875Z,17.20
2017-09-23T08:32:24.393Z,17.30
2017-09-23T08:34:51.916Z,17.30
2017-09-23T08:37:19.437Z,17.20
2017-09-23T08:39:46.965Z,17.40
2017-09-23T08:42:14.468Z,17.60
2017-09-23T08:44:42.785Z,17.90
2017-09-23T08:47:10.301Z,17.80
2017-09-23T08:49:38.580Z,17.80
2017-09-23T08:52:06.857Z,17.50
2017-09-23T08:54:35.118Z,17.40
2017-09-23T08:57:02.648Z,17.40
2017-09-23T08:59:30.156Z,17.30
2017-09-23T09:01:58.446Z,17.10
2017-09-23T09:04:25.947Z,17.10
2017-09-23T09:06:53.489Z,17.10
2017-09-23T09:09:21.009Z,16.90
2017-09-23T09:11:49.292Z,16.90
2017-09-23T09:14:17.598Z,16.80
2017-09-23T09:16:45.114Z,16.80
2017-09-23T09:19:13.430Z,16.70
2017-09-23T09:24:31.818Z,16.70
2017-09-23T09:26:59.346Z,16.60
2017-09-23T09:29:26.870Z,16.30
2017-09-23T09:31:55.181Z,16.00
2017-09-23T09:34:22.710Z,16.00
2017-09-23T09:36:51.008Z,15.80
2017-09-23T09:39:18.511Z,15.80
2017-09-23T09:41:46.036Z,15.80
2017-09-23T09:44:13.595Z,15.80
2017-09-23T09:46:41.099Z,15.80
2017-09-23T09:49:08.715Z,15.80
2017-09-23T09:51:36.238Z,15.90
2017-09-23T09:54:04.507Z,16.40
2017-09-23T09:56:32.803Z,16.60
2017-09-23T09:59:00.322Z,16.60
2017-09-23T10:01:28.627Z,17.10
2017-09-23T10:03:56.918Z,17.20
2017-09-23T10:06:24.449Z,17.20
2017-09-23T10:08:52.757Z,17.30
2017-09-23T10:11:20.278Z,17.30
2017-09-23T10:16:39.132Z,17.40
2017-09-23T10:19:06.766Z,17.40
2017-09-23T10:21:34.318Z,17.30
2017-09-23T10:24:01.975Z,17.20
2017-09-23T10:26:29.515Z,17.20
2017-09-23T10:28:58.232Z,17.70
2017-09-23T10:31:25.795Z,17.70
2017-09-23T10:33:53.327Z,18.10
2017-09-23T10:36:20.859Z,18.40
2017-09-23T10:38:48.420Z,18.70
2017-09-23T10:41:16.756Z,18.80
2017-09-23T10:43:44.295Z,18.80
2017-09-23T10:46:11.866Z,18.60
2017-09-23T10:48:39.413Z,18.50
2017-09-23T10:51:06.979Z,18.50
2017-09-23T10:53:34.627Z,18.50
2017-09-23T10:56:02.208Z,18.50
2017-09-23T10:58:29.780Z,18.60
2017-09-23T11:00:57.362Z,19.20
2017-09-23T11:03:24.900Z,19.80
2017-09-23T11:05:52.447Z,20.10
2017-09-23T11:08:20.017Z,20.00
2017-09-23T11:10:47.565Z,19.80
2017-09-23T11:13:15.099Z,19.70
2017-09-23T11:15:42.678Z,19.50
2017-09-23T11:18:10.228Z,19.60
2017-09-23T11:20:37.760Z,19.80
2017-09-23T11:23:06.093Z,20.20
2017-09-23T11:25:33.727Z,20.20
2017-09-23T11:28:01.297Z,20.70
2017-09-23T11:30:28.873Z,20.80
2017-09-23T11:32:56.423Z,21.00
2017-09-23T11:35:23.979Z,21.80
2017-09-23T11:37:51.561Z,23.30
2017-09-23T11:40:19.092Z,23.60
2017-09-23T11:42:46.669Z,23.40
2017-09-23T11:45:14.305Z,22.90
2017-09-23T11:47:41.855Z,22.10
2017-09-23T11:50:09.420Z,21.40
2017-09-23T11:52:37.011Z,21.00
2017-09-23T11:55:04.562Z,20.90
2017-09-23T11:57:32.104Z,21.40
2017-09-23T11:59:59.685Z,21.40
2017-09-23T12:02:27.245Z,21.20
2017-09-23T12:04:54.881Z,21.20
2017-09-23T12:07:22.416Z,21.50
2017-09-23T12:09:50.003Z,21.60
2017-09-23T12:12:17.550Z,21.40
2017-09-23T12:14:45.120Z,21.20
2017-09-23T12:17:12.686Z,20.90
2017-09-23T12:19:40.234Z,20.60
2017-09-23T12:22:07.792Z,20.60
2017-09-23T12:24:35.341Z,20.90
2017-09-23T12:27:02.906Z,21.40
2017-09-23T12:29:30.464Z,21.70
2017-09-23T12:31:58.019Z,21.80
2017-09-23T12:34:25.575Z,21.70
2017-09-23T12:36:53.107Z,21.40
2017-09-23T12:39:21.445Z,21.30
2017-09-23T12:41:48.989Z,21.20
2017-09-23T12:44:16.519Z,21.00
2017-09-23T12:46:44.086Z,20.60
2017-09-23T12:49:11.642Z,20.20
2017-09-23T12:51:39.191Z,19.80
2017-09-23T12:54:06.759Z,19.70
2017-09-23T12:56:34.320Z,19.70
2017-09-23T12:59:01.851Z,19.80
2017-09-23T13:01:30.195Z,19.50
2017-09-23T13:03:57.738Z,19.50
2017-09-23T13:06:25.313Z,19.50
2017-09-23T13:08:52.884Z,19.40
2017-09-23T13:11:20.433Z,19.40
2017-09-23T13:13:47.964Z,19.50
2017-09-23T13:16:15.531Z,19.60
2017-09-23T13:18:43.078Z,20.20
2017-09-23T13:21:10.625Z,20.70
2017-09-23T13:23:38.182Z,21.10
2017-09-23T13:26:05.766Z,21.10
2017-09-23T13:28:33.310Z,20.90
2017-09-23T13:31:00.867Z,20.70
2017-09-23T13:33:28.418Z,20.80
2017-09-23T13:35:55.952Z,20.40
2017-09-23T13:38:23.540Z,20.40
2017-09-23T13:40:51.100Z,20.40
2017-09-23T13:43:18.678Z,20.50
2017-09-23T13:45:46.236Z,20.40
2017-09-23T13:48:13.797Z,20.50
2017-09-23T13:50:41.907Z,20.50
2017-09-23T13:53:09.530Z,20.50
2017-09-23T13:55:37.063Z,20.50
2017-09-23T13:58:05.387Z,20.20
2017-09-23T14:00:32.957Z,20.20
2017-09-23T14:03:00.495Z,20.20
2017-09-23T14:05:28.023Z,20.10
2017-09-23T14:07:55.706Z,20.00
2017-09-23T14:10:23.250Z,20.00
2017-09-23T14:12:51.674Z,20.00
2017-09-23T14:15:19.228Z,20.00
2017-09-23T14:17:46.784Z,20.20
2017-09-23T14:20:14.340Z,20.20
2017-09-23T14:22:41.895Z,20.20
2017-09-23T14:25:09.541Z,19.90
2017-09-23T14:27:37.081Z,19.50
2017-09-23T14:30:04.672Z,19.30
2017-09-23T14:32:32.214Z,19.10
2017-09-23T14:34:59.743Z,19.00
2017-09-23T14:37:28.096Z,18.80
2017-09-23T14:39:57.160Z,18.90
2017-09-23T14:42:24.815Z,18.90
2017-09-23T14:44:52.367Z,18.90
2017-09-23T14:47:19.928Z,18.80
2017-09-23T14:49:47.486Z,18.80
2017-09-23T14:52:15.062Z,18.80
2017-09-23T14:54:42.609Z,18.80
2017-09-23T14:57:10.143Z,18.70
2017-09-23T14:59:37.718Z,18.80
2017-09-23T15:02:05.287Z,18.90
2017-09-23T15:04:32.834Z,18.90
2017-09-23T15:07:00.505Z,18.90
2017-09-23T15:09:28.035Z,18.90
2017-09-23T15:11:55.592Z,18.90
2017-09-23T15:14:23.920Z,18.90
2017-09-23T15:16:51.488Z,18.90
2017-09-23T15:19:19.030Z,18.70
2017-09-23T15:21:46.648Z,18.70
2017-09-23T15:24:14.980Z,18.70
2017-09-23T15:26:42.526Z,18.60
2017-09-23T15:29:10.204Z,18.70
2017-09-23T15:31:37.752Z,18.70
2017-09-23T15:34:05.306Z,18.60
2017-09-23T15:36:34.102Z,18.40
2017-09-23T15:39:01.668Z,18.30
2017-09-23T15:41:29.312Z,18.20
2017-09-23T15:43:56.964Z,18.10
2017-09-23T15:46:24.634Z,18.10
2017-09-23T15:48:52.164Z,18.00
2017-09-23T15:51:19.741Z,17.90
2017-09-23T15:53:47.286Z,17.90
2017-09-23T15:56:14.860Z,17.80
2017-09-23T15:58:42.433Z,17.70
2017-09-23T16:01:10.084Z,17.70
2017-09-23T16:03:37.615Z,17.50
2017-09-23T16:06:05.206Z,17.40
2017-09-23T16:08:32.745Z,17.30
2017-09-23T16:11:00.276Z,17.30
2017-09-23T16:13:28.599Z,17.30
2017-09-23T16:15:56.126Z,17.20
2017-09-23T16:18:24.423Z,17.20
2017-09-23T16:20:51.987Z,17.20
2017-09-23T16:23:19.515Z,17.10
2017-09-23T16:25:47.826Z,17.00
2017-09-23T16:28:15.403Z,17.00
2017-09-23T16:30:42.931Z,17.00
2017-09-23T16:33:10.482Z,16.90
2017-09-23T16:35:38.039Z,16.70
2017-09-23T16:38:05.574Z,16.60
2017-09-23T16:40:33.881Z,16.40
2017-09-23T16:43:01.466Z,16.40
2017-09-23T16:45:28.995Z,16.40
2017-09-23T16:47:56.557Z,16.30
2017-09-23T16:50:24.122Z,16.30
2017-09-23T16:52:51.680Z,16.20
2017-09-23T16:55:19.235Z,16.20
2017-09-23T16:57:46.778Z,16.10
2017-09-23T17:00:15.097Z,15.90
2017-09-23T17:02:42.669Z,15.90
2017-09-23T17:05:10.213Z,15.90
2017-09-23T17:07:37.796Z,15.80
2017-09-23T17:10:05.331Z,15.70
2017-09-23T17:12:32.987Z,15.60
2017-09-23T17:15:00.575Z,15.50
2017-09-23T17:17:28.111Z,15.40
2017-09-23T17:19:55.674Z,15.30
2017-09-23T17:22:23.203Z,15.20
2017-09-23T17:24:50.772Z,15.10
2017-09-23T17:27:18.303Z,15.10
2017-09-23T17:29:46.637Z,15.00
2017-09-23T17:32:14.216Z,15.00
2017-09-23T17:34:41.765Z,15.00
2017-09-23T17:37:09.319Z,14.90
2017-09-23T17:39:36.865Z,14.90
2017-09-23T17:42:04.423Z,14.90
2017-09-23T17:44:31.973Z,14.80
2017-09-23T17:46:59.548Z,14.80
2017-09-23T17:49:27.121Z,14.80
2017-09-23T17:51:54.669Z,14.80
2017-09-23T17:54:22.220Z,14.70
2017-09-23T17:56:49.869Z,15.00
2017-09-23T17:59:17.440Z,14.60
2017-09-23T18:01:44.987Z,14.50
2017-09-23T18:04:12.548Z,14.40
2017-09-23T18:06:40.135Z,14.30
2017-09-23T18:09:07.696Z,14.30
2017-09-23T18:11:35.249Z,14.30
2017-09-23T18:14:02.809Z,14.20
2017-09-23T18:16:30.357Z,14.20
2017-09-23T18:18:57.930Z,14.20
2017-09-23T18:21:25.467Z,14.20
2017-09-23T18:23:53.032Z,14.20
2017-09-23T18:26:20.606Z,14.20
2017-09-23T18:28:48.154Z,14.10
2017-09-23T18:31:15.726Z,14.20
2017-09-23T18:33:43.273Z,14.10
2017-09-23T18:36:10.831Z,14.00
2017-09-23T18:38:38.405Z,14.00
2017-09-23T18:41:05.968Z,14.00
2017-09-23T18:43:33.517Z,14.00
2017-09-23T18:46:01.072Z,14.00
2017-09-23T18:48:28.607Z,13.90
2017-09-23T18:50:56.169Z,13.90
2017-09-23T18:53:23.734Z,13.90
2017-09-23T18:55:51.300Z,13.90
2017-09-23T18:58:18.890Z,13.80
2017-09-23T19:00:47.947Z,13.70
2017-09-23T19:03:15.604Z,13.70
2017-09-23T19:05:43.155Z,13.60
2017-09-23T19:08:11.625Z,13.60
2017-09-23T19:10:39.324Z,13.40
2017-09-23T19:13:06.873Z,13.40
2017-09-23T19:15:34.527Z,13.30
2017-09-23T19:18:02.106Z,13.20
2017-09-23T19:20:29.753Z,13.10
2017-09-23T19:22:57.309Z,13.00
2017-09-23T19:25:24.974Z,12.90
2017-09-23T19:27:52.511Z,12.80
2017-09-23T19:30:20.112Z,12.70
2017-09-23T19:32:47.676Z,12.60
2017-09-23T19:35:15.244Z,12.50
2017-09-23T19:37:42.834Z,12.50
2017-09-23T19:40:11.245Z,12.50
2017-09-23T19:42:38.808Z,12.50
2017-09-23T19:45:06.468Z,12.50
2017-09-23T19:47:34.018Z,12.60
2017-09-23T19:50:01.565Z,12.70
2017-09-23T19:52:29.135Z,12.70
2017-09-23T19:54:56.685Z,12.70
2017-09-23T19:57:24.234Z,12.70
2017-09-23T19:59:51.816Z,12.70
2017-09-23T20:02:19.380Z,12.60
2017-09-23T20:04:46.931Z,12.60
2017-09-23T20:07:14.531Z,12.60
2017-09-23T20:09:42.082Z,12.60
2017-09-23T20:12:09.630Z,12.60
2017-09-23T20:14:37.205Z,12.60
2017-09-23T20:17:04.753Z,12.70
2017-09-23T20:19:32.397Z,12.70
2017-09-23T20:22:00.059Z,12.70
2017-09-23T20:24:27.606Z,12.70
2017-09-23T20:26:55.175Z,12.60
2017-09-23T20:29:22.736Z,12.60
2017-09-23T20:31:50.299Z,12.60
2017-09-23T20:34:17.908Z,12.60
2017-09-23T20:36:46.207Z,12.50
2017-09-23T20:39:13.749Z,12.40
2017-09-23T20:41:42.101Z,12.50
2017-09-23T20:44:09.737Z,12.40
2017-09-23T20:46:37.291Z,12.40
2017-09-23T20:49:04.850Z,12.40
2017-09-23T20:51:32.415Z,12.40
2017-09-23T20:54:00.074Z,12.30
2017-09-23T20:56:27.736Z,12.40
2017-09-23T20:58:55.298Z,12.30
2017-09-23T21:01:22.956Z,12.30
2017-09-23T21:03:50.495Z,12.30
2017-09-23T21:06:18.031Z,12.30
2017-09-23T21:08:46.381Z,12.30
2017-09-23T21:11:13.933Z,12.20
2017-09-23T21:13:41.571Z,12.20
2017-09-23T21:16:09.141Z,12.20
2017-09-23T21:18:36.704Z,12.20
2017-09-23T21:21:04.254Z,12.20
2017-09-23T21:23:31.841Z,12.20
2017-09-23T21:25:59.469Z,12.20
2017-09-23T21:28:27.022Z,12.10
2017-09-23T21:30:54.594Z,12.10
2017-09-23T21:33:22.127Z,12.00
2017-09-23T21:35:49.682Z,12.00
2017-09-23T21:38:17.268Z,12.00
2017-09-23T21:40:44.877Z,12.00
2017-09-23T21:43:13.242Z,11.90
2017-09-23T21:45:41.069Z,11.90
2017-09-23T21:48:08.598Z,11.90
2017-09-23T21:50:36.939Z,11.90
2017-09-23T21:53:04.625Z,11.80
2017-09-23T21:55:32.956Z,11.80
2017-09-23T21:58:00.545Z,11.80
2017-09-23T22:00:29.602Z,11.80
2017-09-23T22:02:57.150Z,11.80
2017-09-23T22:05:24.729Z,11.80
2017-09-23T22:07:52.277Z,11.80
2017-09-23T22:10:19.826Z,11.80
2017-09-23T22:12:47.404Z,11.80
2017-09-23T22:15:14.936Z,11.80
2017-09-23T22:17:42.504Z,11.80
2017-09-23T22:20:10.075Z,11.80
2017-09-23T22:22:37.666Z,11.80
2017-09-23T22:25:05.226Z,11.80
2017-09-23T22:27:32.795Z,11.70
2017-09-23T22:30:01.099Z,11.70
2017-09-23T22:32:28.673Z,11.70
2017-09-23T22:34:56.207Z,11.70
2017-09-23T22:37:24.522Z,11.70
2017-09-23T22:39:52.094Z,11.70
2017-09-23T22:42:19.627Z,11.70
2017-09-23T22:44:47.301Z,11.70
2017-09-23T22:47:14.859Z,11.70
2017-09-23T22:49:42.405Z,11.80
2017-09-23T22:52:09.972Z,11.80
2017-09-23T22:54:37.564Z,11.80
2017-09-23T22:57:05.117Z,11.80
2017-09-23T22:59:32.650Z,11.80
2017-09-23T23:02:00.230Z,11.80
2017-09-23T23:04:27.790Z,11.90
2017-09-23T23:06:55.367Z,11.90
2017-09-23T23:09:22.945Z,12.00
2017-09-23T23:11:51.267Z,11.90
2017-09-23T23:14:18.933Z,11.90
2017-09-23T23:16:46.509Z,11.90
2017-09-23T23:19:14.062Z,12.00
2017-09-23T23:21:41.609Z,12.00
2017-09-23T23:24:09.172Z,12.00
2017-09-23T23:26:36.722Z,12.00
2017-09-23T23:29:04.270Z,12.00
2017-09-23T23:31:31.846Z,12.00
2017-09-23T23:33:59.408Z,12.00
2017-09-23T23:36:26.966Z,12.10
2017-09-23T23:38:54.549Z,12.00
2017-09-23T23:41:22.091Z,12.00
2017-09-23T23:43:49.638Z,12.00
2017-09-23T23:46:17.228Z,12.00
2017-09-23T23:48:44.803Z,12.00
2017-09-23T23:51:12.373Z,11.90
2017-09-23T23:53:39.907Z,12.00
2017-09-23T23:56:07.474Z,12.00
2017-09-23T23:58:35.049Z,12.00
